• Join FlightAware (Why Join?)
  • Login
  • US Flag 
07:41AM EST


 

Airport Tracker/Info


-or-


 

Live Flight TrackerFlight Track Log ✈ AWE2333 ✈ 09-Aug-2014 ✈ KDFW - KORF

Flight Track Log - Related Links

Times and Time Zones

All times are in EDT time to prevent confusion due to time zone crossing. See the AWE2333 flight status page for this flight to view local times or setup timezone preferences in your user account.

Time Position Orientation Groundspeed Altitude Reporting Facility
EDT Latitude Longitude Course Direction KTS MPH feet Rate Location/Type
07:48PM 32.8833 -97.0333 79° East 168 193 1,300  Level Dallas / Fort Worth TRACON
07:49PM 32.8167 -97.0000 157° South 222 255 3,200 1,740 Climbing Dallas / Fort Worth TRACON
07:50PM 32.7767 -96.9861 164° South 253 291 4,600 2,400 Climbing Fort Worth Center
07:51PM 32.8632 -96.5644 62° Northeast  Level FlightAware Approximate
07:51PM 32.7642 -96.8972 99° East 282 325 7,300  Level Fort Worth Center
07:52PM 32.9209 -96.4311 64° Northeast  Level FlightAware Approximate
07:52PM 32.7858 -96.8042 74° East 295 339 9,900  Level Fort Worth Center
07:53PM 32.9705 -96.2937 79° East  Level FlightAware Approximate
07:53PM 32.8181 -96.7006 70° East 319 367 11,700  Level Fort Worth Center
07:54PM 32.8514 -96.5903 70° East 354 407 14,100 2,400 Climbing Fort Worth Center
07:55PM 32.8769 -96.4647 76° East 371 427 16,700 2,160 Climbing Fort Worth Center
07:56PM 32.8775 -96.3408 90° East 377 434 18,600 1,920 Climbing Fort Worth Center
07:57PM 32.8783 -96.2006 90° East 391 450 20,700 1,560 Climbing Fort Worth Center
07:58PM 32.8792 -96.0647 90° East 409 471 21,800 1,200 Climbing Fort Worth Center
07:59PM 32.8797 -95.9192 90° East 439 505 23,200 1,380 Climbing Fort Worth Center
08:00PM 32.8844 -95.7661 88° East 443 510 24,700 1,320 Climbing Fort Worth Center
08:01PM 32.9522 -95.6367 58° Northeast 458 527 26,000 1,200 Climbing Fort Worth Center
08:02PM 33.0075 -95.4981 65° Northeast 461 531 27,200 1,080 Climbing Fort Worth Center
08:03PM 33.0675 -95.3442 65° Northeast 472 543 28,300 1,140 Climbing Fort Worth Center
08:04PM 33.1236 -95.2014 65° Northeast 472 543 29,600 1,320 Climbing Fort Worth Center
08:05PM 33.1775 -95.0639 65° Northeast 467 537 31,100 1,140 Climbing Fort Worth Center
08:06PM 33.2311 -94.9267 65° Northeast 459 528 32,000 780 Climbing Fort Worth Center
08:07PM 33.2847 -94.7889 65° Northeast 459 528 32,700 480 Climbing Fort Worth Center
08:08PM 33.3389 -94.6492 65° Northeast 461 531 33,000 120 Climbing Fort Worth Center
08:09PM 33.3928 -94.5092 65° Northeast 461 531 33,000  Level Fort Worth Center
08:10PM 33.4578 -94.3408 65° Northeast 462 532 33,000  Level Fort Worth Center
08:11PM 33.5117 -94.2008 65° Northeast 461 531 33,000  Level Fort Worth Center
08:12PM 33.5661 -94.0592 65° Northeast 462 532 33,000  Level Fort Worth Center
08:13PM 33.6194 -93.9169 66° East 462 532 33,000  Level Fort Worth Center
08:14PM 33.6719 -93.7744 66° East 462 532 33,000  Level Fort Worth Center
08:15PM 33.7244 -93.6336 66° East 461 531 33,000  Level Fort Worth Center
08:16PM 33.7767 -93.4925 66° East 461 531 33,000  Level Fort Worth Center
08:17PM 33.8289 -93.3517 66° East 461 531 33,000  Level Fort Worth Center
08:19PM 33.8814 -93.2114 66° East 461 531 33,000  Level Fort Worth Center
08:19PM 33.9114 -93.1272 67° East 461 531 33,000  Level Memphis Center
08:20PM 33.9628 -92.9864 66° East 461 531 33,000  Level Memphis Center
08:21PM 34.0147 -92.8464 66° East 460 529 33,000  Level Memphis Center
08:22PM 34.0664 -92.7053 66° East 460 529 33,000  Level Memphis Center
08:23PM 34.1181 -92.5617 66° East 460 529 33,000  Level Memphis Center
08:24PM 34.1797 -92.3933 66° East 460 529 33,000  Level Memphis Center
08:25PM 34.2303 -92.2500 67° East 462 532 33,000  Level Memphis Center
08:26PM 34.2814 -92.1086 66° East 461 531 33,000  Level Memphis Center
08:27PM 34.3322 -91.9658 67° East 462 532 33,000  Level Memphis Center
08:28PM 34.3808 -91.8217 68° East 462 532 33,000  Level Memphis Center
08:29PM 34.4019 -91.6506 81° East 470 541 33,000  Level Memphis Center
08:30PM 34.4186 -91.4958 83° East 469 540 33,000  Level Memphis Center
08:31PM 34.4319 -91.3392 84° East 468 539 33,000  Level Memphis Center
08:32PM 34.4517 -91.1836 81° East 468 539 33,000  Level Memphis Center
08:33PM 34.5192 -91.0503 58° Northeast 466 536 33,000  Level Memphis Center
08:34PM 34.5900 -90.9189 57° Northeast 466 536 33,000  Level Memphis Center
08:35PM 34.6608 -90.7867 57° Northeast 466 536 33,000  Level Memphis Center
08:36PM 34.7328 -90.6547 56° Northeast 466 536 33,000  Level Memphis Center
08:37PM 34.8069 -90.5250 55° Northeast 466 536 33,000  Level Memphis Center
08:38PM 34.8811 -90.3958 55° Northeast 466 536 33,000  Level Memphis Center
08:39PM 34.9533 -90.2658 56° Northeast 466 536 33,000  Level Memphis Center
08:40PM 35.0278 -90.1347 55° Northeast 466 536 33,000  Level Memphis Center
08:42PM 35.1222 -89.9806 53° Northeast 466 536 33,000  Level Memphis Center
08:43PM 35.2008 -89.8519 53° Northeast 466 536 33,000  Level Memphis Center
08:44PM 35.2853 -89.7283 50° Northeast 467 537 33,000  Level Memphis Center
08:45PM 35.3692 -89.6056 50° Northeast 468 539 33,000  Level Memphis Center
08:46PM 35.4575 -89.4900 47° Northeast 468 539 33,000  Level Memphis Center
08:47PM 35.5433 -89.3672 49° Northeast 468 539 33,000  Level Memphis Center
08:48PM 35.6322 -89.2489 47° Northeast 469 540 33,000  Level Memphis Center
08:49PM 35.7158 -89.1217 51° Northeast 470 541 33,000  Level Memphis Center
08:50PM 35.7958 -88.9925 53° Northeast 474 545 33,000  Level Memphis Center
08:51PM 35.8786 -88.8681 51° Northeast 474 545 33,000  Level Memphis Center
08:52PM 35.9592 -88.7386 52° Northeast 474 545 33,000  Level Memphis Center
08:53PM 36.0419 -88.6136 51° Northeast 474 545 33,000  Level Memphis Center
08:54PM 36.1389 -88.4564 53° Northeast 478 550 33,000  Level Memphis Center
08:55PM 36.2186 -88.3239 53° Northeast 481 554 33,000 240 Level Memphis Center
08:56PM 36.2981 -88.1958 52° Northeast 475 547 33,500 600 Climbing Memphis Center
08:57PM 36.3742 -88.0603 55° Northeast 476 548 34,300 660 Climbing Memphis Center
08:58PM 36.4533 -87.9261 54° Northeast 475 547 34,900 300 Climbing Memphis Center
08:59PM 36.5325 -87.7914 54° Northeast 475 547 35,000  Climbing Memphis Center
09:00PM 36.6139 -87.6578 53° Northeast 476 548 35,000  Level Memphis Center
09:01PM 36.6919 -87.5239 54° Northeast 475 547 35,000  Level Memphis Center
09:02PM 36.7717 -87.3881 54° Northeast 475 547 35,000  Level Memphis Center
09:03PM 36.8475 -87.2469 56° Northeast 478 550 35,000  Level Memphis Center
09:04PM 36.9275 -87.1097 54° Northeast 480 552 35,000  Level Memphis Center
09:05PM 36.9808 -86.9544 67° East 486 559 35,000  Level Memphis Center
09:06PM 37.0075 -86.7861 79° East 486 559 35,000  Level Memphis Center
09:07PM 37.0333 -86.6181 79° East 486 559 35,000  Level Memphis Center
09:08PM 37.0608 -86.4489 78° East 486 559 35,000  Level Memphis Center
09:09PM 37.0789 -86.3361 79° East 488 562 35,000  Level Indianapolis Center
09:10PM 37.1053 -86.1711 79° East 485 558 35,000  Level Indianapolis Center
09:11PM 37.1311 -86.0064 79° East 480 552 35,000  Level Indianapolis Center
09:12PM 37.1578 -85.8397 79° East 479 551 35,000  Level Indianapolis Center
09:13PM 37.1825 -85.6719 79° East 482 555 35,000  Level Indianapolis Center
09:14PM 37.2094 -85.4972 79° East 482 555 35,000  Level Indianapolis Center
09:15PM 37.2336 -85.3300 80° East 486 559 35,000  Level Indianapolis Center
09:16PM 37.2603 -85.1622 79° East 486 559 35,000  Level Indianapolis Center
09:17PM 37.2833 -84.9944 80° East 487 560 35,000  Level Indianapolis Center
09:18PM 37.3083 -84.8244 79° East 488 562 35,000  Level Indianapolis Center
09:19PM 37.3319 -84.6581 80° East 488 562 35,000  Level Indianapolis Center
09:20PM 37.3556 -84.4917 80° East 487 560 35,000  Level Indianapolis Center
09:21PM 37.3786 -84.3233 80° East 487 560 35,000  Level Indianapolis Center
09:22PM 37.4036 -84.1542 79° East 488 562 35,000  Level Indianapolis Center
09:23PM 37.4294 -83.9600 80° East 488 562 35,000  Level Indianapolis Center
09:24PM 37.4531 -83.7906 80° East 488 562 35,000  Level Indianapolis Center
09:25PM 37.4747 -83.6236 81° East 486 559 35,000  Level Indianapolis Center
09:26PM 37.4981 -83.4517 80° East 491 565 35,000  Level Indianapolis Center
09:27PM 37.5203 -83.2814 81° East 492 566 35,000  Level Indianapolis Center
09:28PM 37.5425 -83.1106 81° East 492 566 35,000  Level Indianapolis Center
09:29PM 37.5647 -82.9392 81° East 492 566 35,000  Level Indianapolis Center
09:30PM 37.5864 -82.7661 81° East 492 566 35,000  Level Indianapolis Center
09:31PM 37.6072 -82.5964 81° East 492 566 35,000  Level Indianapolis Center
09:32PM 37.6292 -82.4264 81° East 492 566 35,000  Level Indianapolis Center
09:33PM 37.6492 -82.2564 81° East 491 565 35,000  Level Indianapolis Center
09:34PM 37.6697 -82.0836 81° East 491 565 35,000  Level Indianapolis Center
09:35PM 37.6897 -81.9128 82° East 491 565 35,000 -300 Level Indianapolis Center
09:36PM 37.7094 -81.7408 82° East 491 565 34,500 -840 Descending Indianapolis Center
09:37PM 37.7331 -81.5431 81° East 491 565 33,300 -1,020 Descending Indianapolis Center
09:38PM 37.7494 -81.4064 81° East 488 562 32,500 -1,020 Descending Indianapolis Center
09:39PM 37.7722 -81.2022 82° East 488 562 31,300 -780 Descending Indianapolis Center
09:40PM 37.7881 -81.0331 83° East 488 562 31,000 -180 Descending Indianapolis Center
09:41PM 37.7983 -80.8628 86° East 487 560 31,000  Level Indianapolis Center
09:42PM 37.8092 -80.6925 85° East 487 560 31,000  Level Indianapolis Center
09:43PM 37.8200 -80.5286 85° East 488 562 31,000  Level Indianapolis Center
09:44PM 37.8306 -80.3478 86° East 489 563 31,000 -360 Level Indianapolis Center
09:45PM 37.8417 -80.1744 85° East 490 564 30,300 -840 Descending Indianapolis Center
09:46PM 37.8519 -80.0014 86° East 490 564 29,300 -1,080 Descending Indianapolis Center
09:47PM 37.8639 -79.8058 86° East 491 565 28,200 -1,020 Descending Indianapolis Center
09:48PM 37.8728 -79.6547 86° East 491 565 27,300 -660 Descending Indianapolis Center
09:49PM 37.8797 -79.4867 87° East 481 554 26,900 -780 Descending Indianapolis Center
09:50PM 37.8367 -79.2942 106° East 470 541 25,700 -1,020 Descending Washington Center
09:51PM 37.8042 -79.1322 104° East 470 541 24,800 -780 Descending Washington Center
09:52PM 37.7747 -78.9914 105° East 470 541 24,200 -720 Descending Washington Center
09:53PM 37.7417 -78.8325 105° East 464 534 23,400 -900 Descending Washington Center
09:54PM 37.7103 -78.6789 104° East 464 534 22,400 -960 Descending Washington Center
09:55PM 37.6786 -78.5281 105° East 459 528 21,500 -720 Descending Washington Center
09:57PM 37.6486 -78.3800 104° East 448 516 21,000 -300 Descending Washington Center
09:57PM 37.6186 -78.2347 105° East 441 507 21,000  Level Washington Center
09:58PM 37.5819 -78.0892 108° East 436 502 21,000 -60 Level Washington Center
09:59PM 37.5539 -77.9417 103° East 436 502 20,900 -1,080 Descending Washington Center
10:00PM 37.5253 -77.7967 104° East 436 502 18,900 -1,980 Descending Washington Center
10:01PM 37.5172 -77.6578 94° East 414 476 17,000 -2,220 Descending Washington Center
10:02PM 37.5072 -77.5081 95° East 398 458 14,600 -1,500 Descending Washington Center
10:03PM 37.4967 -77.3769 96° East 385 443 14,000 -540 Descending Washington Center
10:04PM 37.4950 -77.3561 96° East 374 430 14,000  Level Washington Center
10:05PM 37.4864 -77.2275 95° East 370 426 14,000  Level Washington Center
10:05PM 37.4792 -77.1306 95° East 375 432 14,000  Level Washington Center
10:06PM 37.4775 -77.0967 94° East 379 436 14,000  Level Washington Center
10:06PM 37.4686 -76.9892 96° East 369 425 14,000  Level Washington Center
10:07PM 37.4667 -76.9578 94° East 373 429 14,000 -300 Level Washington Center
10:07PM 37.4511 -76.8711 103° East 369 425 13,700 -840 Descending Washington Center
10:08PM 37.4325 -76.8419 129° Southeast 371 427 13,200 -1,140 Descending Washington Center
10:08PM 37.3789 -76.7889 142° Southeast 344 396 12,600 -900 Descending Washington Center
10:09PM 37.3539 -76.7728 153° Southeast 328 377 12,300 -1,500 Descending Washington Center
10:09PM 37.3044 -76.7275 144° Southeast 324 373 11,200 -1,920 Descending Washington Center
10:10PM 37.2836 -76.7142 153° Southeast 305 351 10,400 -2,100 Descending Washington Center
10:11PM 37.2339 -76.6719 146° Southeast 319 367 9,000 -1,920 Descending Washington Center
10:11PM 37.2133 -76.6611 157° South 294 338 8,500 -1,560 Descending Washington Center
10:11PM 37.1675 -76.6239 147° Southeast 294 338 7,500 -1,500 Descending Washington Center
10:12PM 37.1406 -76.6081 155° Southeast 282 325 7,000 -1,500 Descending Washington Center
10:12PM 37.1014 -76.5761 147° Southeast 283 326 6,000 -1,500 Descending Washington Center
10:13PM 37.0742 -76.5628 159° South 271 312 5,500 -1,620 Descending Washington Center
10:14PM 37.0100 -76.5128 148° Southeast 265 305 4,000 -1,260 Descending Washington Center
10:15PM 36.9583 -76.4547 138° Southeast 237 273 3,000 -1,020 Descending Washington Center
10:16PM 36.9128 -76.4050 139° Southeast 221 254 2,000 -480 Descending Washington Center
10:17PM 36.8650 -76.3553 140° Southeast 201 231 2,000  Level Washington Center
10:18PM 36.8319 -76.3108 133° Southeast 149 171 2,000 -420 Level Washington Center
10:19PM 36.8428 -76.2564 76° East 142 163 1,200 -780 Descending Washington Center
10:20PM 36.8742 -76.2253 38° Northeast 147 169 400 -780 Descending Washington Center